Friday, October 19, 2018, 11:10 AM GMT
Back to Local

CYUL, Montreal / Pierre Elliot Trudeau International Airport, Que

Location: , , Canada Lat: 45.467
Local Time: 11:10 AM GMT (11:10 GMT) Lon: -73.75
Time Zone: GMT Elev: 101 ft

Show me the last for .
Show Decoded

2018-10-19 10:00 METAR CYUL 191000Z 24013G20KT 15SM BKN190 06/M00 A3005 RMK CC7 CI ASOCT SLP177 =
2018-10-19 09:00 METAR CYUL 190900Z 24013G20KT 15SM FEW065 BKN210 05/M01 A3006 RMK SC2CC5 CI
                 ASOCT SLP181 =
2018-10-19 08:00 METAR CYUL 190800Z 24017G22KT 15SM OVC065 06/M01 A3007 RMK SC8 SLP185 =
2018-10-19 07:00 METAR CYUL 190700Z 24015KT 15SM OVC065 05/M01 A3009 RMK SC8 SLP193 =
2018-10-19 06:00 METAR CYUL 190600Z 23011G16KT 15SM OVC065 05/M02 A3012 RMK SC8 SLP201 =
2018-10-19 05:00 METAR CYUL 190500Z 24011KT 15SM OVC065 05/M03 A3014 RMK SC8 SLP208 =
2018-10-19 04:00 METAR CYUL 190400Z 24009G15KT 15SM BKN045 BKN070 04/M04 A3016 RMK SC5AC2 SLP215
                 =
2018-10-19 03:00 METAR CYUL 190300Z 25009KT 15SM OVC070 04/M05 A3018 RMK AC8 SLP223 =
2018-10-19 02:00 METAR CYUL 190200Z 25004KT 15SM OVC075 03/M07 A3018 RMK AC8 SLP225 =
2018-10-19 01:00 METAR CYUL 190100Z 26006KT 15SM BKN083 03/M07 A3019 RMK AC7 SLP228 =
2018-10-19 00:00 METAR CYUL 190000Z 27008KT 15SM BKN100 03/M08 A3021 RMK AC5 SLP233 =
2018-10-18 23:00 METAR CYUL 182300Z 27013G19KT 15SM FEW060 FEW240 03/M09 A3022 RMK SC1CI1 CI TR
                 SLP237 =
2018-10-18 22:00 METAR CYUL 182200Z 26018KT 30SM FEW060 FEW250 03/M10 A3022 RMK SC1CI1 SC TR
                 SLP237 =
2018-10-18 21:00 METAR CYUL 182100Z 26014G24KT 30SM FEW060 FEW250 04/M09 A3021 RMK SC1CI1 SLP233
                 =
2018-10-18 20:00 METAR CYUL 182000Z 26013G22KT 30SM SCT058 04/M08 A3022 RMK SC4 SLP238 =
2018-10-18 19:00 METAR CYUL 181900Z 26019G25KT 30SM FEW050 BKN060 BKN250 05/M09 A3023 RMK
                 SC2SC3CI1 CI TR SLP240 =
2018-10-18 18:00 METAR CYUL 181800Z 26018G25KT 30SM SCT050 BKN060 04/M08 A3023 RMK SC3SC2 SLP242
                 =
2018-10-18 17:00 METAR CYUL 181700Z 27021G27KT 30SM BKN050 BKN250 04/M08 A3026 RMK SC5CI1 CI TR
                 SLP250 =
2018-10-18 16:00 METAR CYUL 181600Z 27017KT 30SM FEW040 03/M07 A3026 RMK SC1 SLP251 =
2018-10-18 15:00 METAR CYUL 181500Z 28015G22KT 30SM FEW038 02/M07 A3026 RMK SC1 SLP252 =
2018-10-18 14:00 METAR CYUL 181400Z 28016KT 30SM FEW040 02/M07 A3026 RMK SC1 SLP250 =
2018-10-18 13:00 METAR CYUL 181300Z 28014G20KT 15SM FEW045 01/M07 A3025 RMK SC2 CF ASOCT SLP246 =
2018-10-18 12:00 METAR CYUL 181200Z 29013G20KT 15SM FEW045 M00/M08 A3022 RMK SC1 SC TR SLP237 =

Support USWX by starting your Amazon purchase here.